Time;durP1;ratioP1;P1;durP2;ratioP2;P2;SDS_P1;SDS_P2;PMS_P1;PMS_P2;Temp;Humidity;BMP_temperature;BMP_pressure;BME280_temperature;BME280_humidity;BME280_pressure;Samples;Min_cycle;Max_cycle;Signal;HPM_P1;HPM_P2
2022/03/10 00:00:43;;;;;;;0.90;0.90;;;-1.90;1.00;;;;;;5071339;28;20544;-77
2022/03/10 00:03:08;;;;;;;0.97;0.97;;;-2.10;1.00;;;;;;5071230;28;20174;-75
2022/03/10 00:05:34;;;;;;;0.87;0.87;;;-2.20;99.90;;;;;;5071199;28;20162;-76
2022/03/10 00:08:00;;;;;;;0.80;0.80;;;-2.10;1.00;;;;;;5071426;28;20170;-76
2022/03/10 00:10:25;;;;;;;0.90;0.90;;;-2.10;99.90;;;;;;5070594;28;20194;-76
2022/03/10 00:12:52;;;;;;;0.90;0.90;;;-2.00;99.90;;;;;;5071111;28;20585;-76
2022/03/10 00:15:21;;;;;;;0.80;0.80;;;-1.90;1.00;;;;;;5071072;28;20308;-76
2022/03/10 00:17:46;;;;;;;0.90;0.90;;;-1.90;1.00;;;;;;5071347;28;20178;-75
2022/03/10 00:20:12;;;;;;;0.90;0.90;;;-2.00;1.00;;;;;;5070527;28;20201;-75
2022/03/10 00:22:51;;;;;;;1.00;1.00;;;-2.00;99.90;;;;;;5071174;28;20836;-76
2022/03/10 00:25:17;;;;;;;0.90;0.90;;;-2.10;99.90;;;;;;5071094;28;20171;-76
2022/03/10 00:27:43;;;;;;;0.90;0.90;;;-2.10;1.00;;;;;;5071054;28;20558;-76
2022/03/10 00:30:09;;;;;;;0.80;0.80;;;-2.10;99.90;;;;;;5070317;28;20198;-75
2022/03/10 00:32:42;;;;;;;0.83;0.83;;;-2.10;1.00;;;;;;5071096;28;20177;-77
2022/03/10 00:35:09;;;;;;;0.80;0.80;;;-2.10;72.30;;;;;;5070979;28;20577;-77
2022/03/10 00:37:35;;;;;;;0.80;0.80;;;-2.10;1.00;;;;;;5071166;28;20175;-77
2022/03/10 00:40:00;;;;;;;0.90;0.90;;;-2.10;1.00;;;;;;5070555;28;20194;-78
2022/03/10 00:42:26;;;;;;;0.90;0.90;;;-2.20;5.80;;;;;;5071234;28;20304;-77
2022/03/10 00:44:51;;;;;;;0.80;0.80;;;-2.20;1.00;;;;;;5071302;28;20647;-77
2022/03/10 00:47:19;;;;;;;0.80;0.80;;;-2.20;1.00;;;;;;5071245;28;20236;-77
2022/03/10 00:49:44;;;;;;;0.90;0.90;;;-2.20;1.00;;;;;;5070757;28;20194;-76
2022/03/10 00:52:10;;;;;;;0.80;0.80;;;-2.20;99.90;;;;;;5071113;28;20177;-77
2022/03/10 00:54:35;;;;;;;0.90;0.90;;;-2.30;1.00;;;;;;5071803;28;20749;-77
2022/03/10 00:57:01;;;;;;;0.90;0.90;;;-2.30;1.00;;;;;;5072202;28;20217;-76
2022/03/10 00:59:26;;;;;;;0.90;0.90;;;-2.30;1.00;;;;;;5072250;28;20198;-77
2022/03/10 01:01:52;;;;;;;0.80;0.80;;;-2.30;1.00;;;;;;5070897;28;20178;-77
2022/03/10 01:04:17;;;;;;;0.90;0.90;;;-2.30;99.90;;;;;;5071496;28;20170;-78
2022/03/10 01:06:43;;;;;;;0.90;0.90;;;-2.20;99.90;;;;;;5071244;28;20261;-78
2022/03/10 01:09:08;;;;;;;1.00;1.00;;;-2.20;99.90;;;;;;5070580;28;20659;-76
2022/03/10 01:11:34;;;;;;;0.90;0.90;;;-2.30;1.00;;;;;;5070814;28;20193;-77
2022/03/10 01:14:00;;;;;;;0.90;0.90;;;-2.30;1.00;;;;;;5071230;28;20745;-77
2022/03/10 01:16:26;;;;;;;1.00;1.00;;;-2.30;1.00;;;;;;5070816;28;20621;-75
2022/03/10 01:18:51;;;;;;;0.90;0.90;;;-2.40;99.90;;;;;;5070799;28;20182;-77
2022/03/10 01:21:17;;;;;;;0.90;0.90;;;-2.30;1.00;;;;;;5073344;28;20190;-75
2022/03/10 01:23:42;;;;;;;0.90;0.90;;;-2.30;99.90;;;;;;5074611;28;20177;-76
2022/03/10 01:26:08;;;;;;;1.00;1.00;;;-2.40;1.00;;;;;;5074869;28;20189;-74
2022/03/10 01:28:33;;;;;;;0.90;0.90;;;-2.40;99.90;;;;;;5075054;28;20205;-76
2022/03/10 01:30:59;;;;;;;0.80;0.80;;;-2.30;99.90;;;;;;5074896;28;20197;-76
2022/03/10 01:33:24;;;;;;;0.90;0.90;;;-2.30;99.90;;;;;;5074157;28;20206;-76
2022/03/10 01:35:50;;;;;;;0.90;0.90;;;-2.30;1.00;;;;;;5074443;28;20175;-77
2022/03/10 01:38:15;;;;;;;0.80;0.80;;;-2.30;1.00;;;;;;5074342;28;20185;-77
2022/03/10 01:40:41;;;;;;;0.90;0.90;;;-2.40;1.00;;;;;;5073805;28;20197;-77
2022/03/10 01:43:06;;;;;;;0.90;0.90;;;-2.40;99.90;;;;;;5074345;28;20178;-77
2022/03/10 01:45:32;;;;;;;0.90;0.90;;;-2.50;99.90;;;;;;5074542;28;20524;-77
2022/03/10 01:47:57;;;;;;;1.00;1.00;;;-2.60;99.90;;;;;;5074351;28;20171;-76
2022/03/10 01:50:23;;;;;;;1.00;1.00;;;-2.50;99.90;;;;;;5073504;28;20676;-77
2022/03/10 01:52:48;;;;;;;0.90;0.90;;;-2.50;99.90;;;;;;5074131;28;20190;-77
2022/03/10 01:55:14;;;;;;;0.97;0.97;;;-2.50;1.00;;;;;;5074266;28;20258;-77
2022/03/10 01:57:43;;;;;;;0.97;0.97;;;-2.50;1.00;;;;;;5074071;28;20179;-77
2022/03/10 02:00:10;;;;;;;0.97;0.97;;;-2.50;1.00;;;;;;5073139;28;20240;-77
2022/03/10 02:02:35;;;;;;;0.90;0.90;;;-2.60;99.90;;;;;;5073785;28;20204;-77
2022/03/10 02:05:01;;;;;;;0.90;0.90;;;-2.60;99.90;;;;;;5074204;28;20171;-77
2022/03/10 02:10:16;;;;;;;0.90;0.90;;;-2.60;1.00;;;;;;5073638;28;20225;-76
2022/03/10 02:12:53;;;;;;;0.90;0.90;;;-2.70;1.00;;;;;;5073734;28;20567;-78
2022/03/10 02:18:09;;;;;;;0.90;0.90;;;-2.70;1.00;;;;;;5073722;28;20181;-76
2022/03/10 02:20:36;;;;;;;0.80;0.80;;;-2.90;99.90;;;;;;5072923;28;20207;-77
2022/03/10 02:23:03;;;;;;;0.90;0.90;;;-2.90;1.00;;;;;;5073313;28;20684;-76
2022/03/10 02:25:29;;;;;;;0.90;0.90;;;-2.90;1.00;;;;;;5073281;28;20186;-77
2022/03/10 02:27:56;;;;;;;0.80;0.80;;;-2.80;99.90;;;;;;5073385;28;20177;-75
2022/03/10 02:30:23;;;;;;;0.90;0.90;;;-2.80;99.90;;;;;;5072882;28;20202;-77
2022/03/10 02:32:49;;;;;;;0.90;0.90;;;-3.10;1.00;;;;;;5071981;28;20534;-77
2022/03/10 02:35:15;;;;;;;0.87;0.87;;;-3.30;99.90;;;;;;5073122;28;20673;-77
2022/03/10 02:37:41;;;;;;;0.93;0.93;;;-3.50;1.00;;;;;;5073308;28;20543;-77
2022/03/10 02:40:09;;;;;;;0.90;0.90;;;-3.50;72.20;;;;;;5072604;28;20206;-76
2022/03/10 02:42:34;;;;;;;0.90;0.90;;;-3.60;1.00;;;;;;5073063;28;20249;-76
2022/03/10 02:45:01;;;;;;;0.90;0.90;;;-3.50;1.00;;;;;;5072943;28;20309;-76
2022/03/10 02:47:27;;;;;;;0.90;0.90;;;-3.40;99.90;;;;;;5072983;28;20194;-77
2022/03/10 02:49:53;;;;;;;0.80;0.80;;;-3.30;99.90;;;;;;5072342;28;20202;-76
2022/03/10 02:52:18;;;;;;;0.90;0.90;;;-3.30;99.90;;;;;;5072962;28;20188;-77
2022/03/10 02:54:44;;;;;;;0.80;0.80;;;-3.30;1.00;;;;;;5073104;28;20183;-78
2022/03/10 02:57:11;;;;;;;0.90;0.90;;;-3.30;1.00;;;;;;5073030;28;20178;-78
2022/03/10 02:59:36;;;;;;;0.90;0.90;;;-3.40;1.00;;;;;;5072060;28;20664;-79
2022/03/10 03:02:02;;;;;;;0.90;0.90;;;-3.40;99.90;;;;;;5072829;28;20193;-76
2022/03/10 03:04:28;;;;;;;0.80;0.80;;;-3.20;1.00;;;;;;5073181;28;20214;-78
2022/03/10 03:06:54;;;;;;;0.80;0.80;;;-3.10;73.30;;;;;;5073030;28;20639;-76
2022/03/10 03:09:19;;;;;;;0.90;0.90;;;-3.10;99.90;;;;;;5072192;28;20198;-78
2022/03/10 03:11:45;;;;;;;0.90;0.90;;;-3.10;99.90;;;;;;5072408;28;20190;-78
2022/03/10 03:14:10;;;;;;;0.80;0.80;;;-3.10;1.00;;;;;;5072634;28;20223;-77
2022/03/10 03:16:38;;;;;;;0.80;0.80;;;-3.10;99.90;;;;;;5072897;28;20179;-77
2022/03/10 03:19:03;;;;;;;0.90;0.90;;;-3.10;99.90;;;;;;5072177;28;20174;-78
2022/03/10 03:21:29;;;;;;;0.90;0.90;;;-3.10;1.00;;;;;;5072559;28;20170;-76
2022/03/10 03:23:56;;;;;;;0.90;0.90;;;-3.30;1.00;;;;;;5072424;28;20278;-78
2022/03/10 03:26:21;;;;;;;0.80;0.80;;;-3.40;99.90;;;;;;5073294;28;20629;-77
2022/03/10 03:28:47;;;;;;;0.90;0.90;;;-3.30;1.00;;;;;;5076095;28;20170;-77
2022/03/10 03:31:12;;;;;;;0.90;0.90;;;-3.40;1.00;;;;;;5072304;28;20320;-77
2022/03/10 03:33:38;;;;;;;0.90;0.90;;;-3.60;99.90;;;;;;5072545;28;20174;-78
2022/03/10 03:36:05;;;;;;;0.93;0.93;;;-3.50;1.00;;;;;;5072764;28;20209;-78
2022/03/10 03:38:30;;;;;;;0.90;0.90;;;-3.50;99.90;;;;;;5072297;28;20178;-78
2022/03/10 03:40:56;;;;;;;0.90;0.90;;;-3.50;1.00;;;;;;5071786;28;20547;-78
2022/03/10 03:43:22;;;;;;;0.80;0.80;;;-3.50;99.90;;;;;;5071838;28;20309;-78
2022/03/10 03:45:47;;;;;;;0.90;0.90;;;-3.50;1.00;;;;;;5072256;28;20262;-78
2022/03/10 03:48:13;;;;;;;0.90;0.90;;;-3.60;1.00;;;;;;5072059;28;20178;-78
2022/03/10 03:50:38;;;;;;;0.90;0.90;;;-3.60;66.60;;;;;;5071620;28;20679;-78
2022/03/10 03:53:04;;;;;;;0.90;0.90;;;-3.60;1.00;;;;;;5072346;28;20179;-77
2022/03/10 03:55:30;;;;;;;0.80;0.80;;;-3.60;1.00;;;;;;5071785;28;20166;-77
2022/03/10 03:57:55;;;;;;;0.90;0.90;;;-3.50;1.00;;;;;;5071724;28;20174;-79
2022/03/10 04:00:21;;;;;;;0.90;0.90;;;-3.70;1.00;;;;;;5071027;28;20186;-78
2022/03/10 04:02:47;;;;;;;0.90;0.90;;;-3.60;1.00;;;;;;5071525;28;20175;-78
2022/03/10 04:05:12;;;;;;;0.80;0.80;;;-3.60;99.90;;;;;;5072002;28;20206;-78
2022/03/10 04:07:39;;;;;;;0.80;0.80;;;-3.70;99.90;;;;;;5072222;28;20182;-77
2022/03/10 04:10:06;;;;;;;0.73;0.73;;;-3.60;1.00;;;;;;5071888;28;20202;-77
2022/03/10 04:12:32;;;;;;;0.90;0.90;;;-3.60;99.90;;;;;;5073815;28;20182;-77
2022/03/10 04:14:57;;;;;;;0.80;0.80;;;-3.60;99.90;;;;;;5072114;28;20177;-75
2022/03/10 04:17:23;;;;;;;0.80;0.80;;;-3.70;47.50;;;;;;5071595;28;20183;-76
2022/03/10 04:19:49;;;;;;;0.90;0.90;;;-3.80;1.00;;;;;;5071159;28;20210;-78
2022/03/10 04:22:14;;;;;;;0.80;0.80;;;-3.80;99.90;;;;;;5071652;28;20702;-76
2022/03/10 04:24:40;;;;;;;0.80;0.80;;;-3.80;1.00;;;;;;5071342;28;20217;-77
2022/03/10 04:27:06;;;;;;;0.80;0.80;;;-3.80;1.00;;;;;;5071560;28;20521;-75
2022/03/10 04:29:32;;;;;;;0.80;0.80;;;-3.80;99.90;;;;;;5070701;28;20205;-78
2022/03/10 04:31:58;;;;;;;0.90;0.90;;;-3.90;99.90;;;;;;5070881;28;20205;-77
2022/03/10 04:34:24;;;;;;;0.90;0.90;;;-3.90;1.00;;;;;;5071497;28;20257;-78
2022/03/10 04:36:49;;;;;;;0.80;0.80;;;-4.00;1.00;;;;;;5071286;28;20179;-77
2022/03/10 04:39:15;;;;;;;0.90;0.90;;;-4.00;99.90;;;;;;5070608;28;20547;-77
2022/03/10 04:41:40;;;;;;;0.80;0.80;;;-4.00;1.00;;;;;;5071226;28;20188;-77
2022/03/10 04:46:34;;;;;;;0.80;0.80;;;-4.00;1.00;;;;;;4991433;28;20197;-78
2022/03/10 04:49:00;;;;;;;0.80;0.80;;;-4.00;99.90;;;;;;4992475;28;20211;-77
2022/03/10 04:51:25;;;;;;;0.77;0.77;;;-4.10;1.00;;;;;;4992188;28;20283;-76
2022/03/10 04:53:51;;;;;;;0.90;0.90;;;-4.20;99.90;;;;;;4993439;28;20185;-77
2022/03/10 04:56:16;;;;;;;0.80;0.80;;;-4.10;1.00;;;;;;4992898;28;20180;-77
2022/03/10 04:58:42;;;;;;;0.70;0.70;;;-4.10;1.00;;;;;;4993542;28;20192;-77
2022/03/10 05:01:07;;;;;;;0.80;0.80;;;-4.10;1.00;;;;;;4991535;28;20219;-76
2022/03/10 05:03:33;;;;;;;0.70;0.70;;;-4.20;99.70;;;;;;4993872;28;20297;-78
2022/03/10 05:06:00;;;;;;;0.80;0.80;;;-4.20;99.90;;;;;;4992307;28;20195;-76
2022/03/10 05:08:25;;;;;;;0.80;0.80;;;-4.20;99.90;;;;;;4991975;28;20690;-76
2022/03/10 05:10:51;;;;;;;0.80;0.80;;;-4.20;1.00;;;;;;4991116;28;20287;-75
2022/03/10 05:13:16;;;;;;;0.77;0.77;;;-4.10;96.10;;;;;;4991938;28;20212;-75
2022/03/10 05:15:43;;;;;;;0.80;0.80;;;-4.20;1.00;;;;;;4991912;28;20177;-76
2022/03/10 05:18:08;;;;;;;0.73;0.73;;;-4.20;1.00;;;;;;4992088;28;20559;-76
2022/03/10 05:20:34;;;;;;;0.70;0.70;;;-4.20;99.90;;;;;;4991262;28;20674;-75
2022/03/10 05:23:02;;;;;;;0.90;0.90;;;-4.00;99.90;;;;;;4991455;28;20180;-75
2022/03/10 05:25:41;;;;;;;0.60;0.60;;;-4.00;99.90;;;;;;4991465;28;20185;-75
2022/03/10 05:28:14;;;;;;;0.80;0.80;;;-3.90;99.90;;;;;;4991701;28;20201;-76
2022/03/10 05:30:40;;;;;;;0.80;0.80;;;-3.90;99.90;;;;;;4991247;28;20216;-76
2022/03/10 05:33:07;;;;;;;0.80;0.80;;;-3.90;99.90;;;;;;4991663;28;20182;-76
2022/03/10 05:35:32;;;;;;;0.70;0.70;;;-3.90;96.60;;;;;;4991635;28;20185;-75
2022/03/10 05:37:59;;;;;;;0.80;0.80;;;-3.90;99.90;;;;;;4991825;28;20550;-76
2022/03/10 05:40:24;;;;;;;0.80;0.80;;;-4.00;1.00;;;;;;4990767;28;20217;-75
2022/03/10 05:42:53;;;;;;;0.80;0.80;;;-4.00;1.00;;;;;;4991359;28;20193;-75
2022/03/10 05:45:21;;;;;;;0.80;0.80;;;-4.00;1.00;;;;;;4991484;28;20225;-75
2022/03/10 05:47:51;;;;;;;0.80;0.80;;;-4.10;1.00;;;;;;4991575;28;20169;-75
2022/03/10 05:50:18;;;;;;;0.80;0.80;;;-4.10;1.00;;;;;;4991365;28;20197;-75
2022/03/10 05:52:45;;;;;;;0.80;0.80;;;-4.00;1.00;;;;;;4998554;28;20713;-74
2022/03/10 05:55:12;;;;;;;0.70;0.70;;;-4.10;1.00;;;;;;4999575;28;20679;-76
2022/03/10 05:57:38;;;;;;;0.80;0.80;;;-4.00;99.90;;;;;;5003106;28;20245;-75
2022/03/10 06:00:05;;;;;;;0.70;0.70;;;-4.00;99.90;;;;;;5005579;28;20661;-76
2022/03/10 06:02:30;;;;;;;0.90;0.90;;;-4.00;99.90;;;;;;5005970;28;20256;-76
2022/03/10 06:05:00;;;;;;;0.80;0.80;;;-3.80;99.90;;;;;;5000628;28;20314;-75
2022/03/10 06:07:29;;;;;;;0.90;0.90;;;-3.60;19.50;;;;;;4974530;28;20190;-77
2022/03/10 06:09:55;;;;;;;0.80;0.80;;;-3.60;1.00;;;;;;4975099;28;20563;-75
2022/03/10 06:12:21;;;;;;;0.80;0.80;;;-3.60;1.00;;;;;;4975622;28;20229;-74
2022/03/10 06:14:47;;;;;;;0.70;0.70;;;-3.70;99.90;;;;;;4975449;28;20205;-75
2022/03/10 06:17:12;;;;;;;0.70;0.70;;;-3.60;1.00;;;;;;4975372;28;20177;-75
2022/03/10 06:19:38;;;;;;;0.80;0.80;;;-3.60;1.00;;;;;;4974752;28;20194;-75
2022/03/10 06:22:03;;;;;;;0.80;0.80;;;-3.50;1.00;;;;;;4975092;28;20185;-76
2022/03/10 06:24:29;;;;;;;0.80;0.80;;;-3.50;1.00;;;;;;4975253;28;20216;-76
2022/03/10 06:26:55;;;;;;;0.80;0.80;;;-3.40;1.00;;;;;;4975147;28;20517;-76
2022/03/10 06:29:20;;;;;;;0.67;0.67;;;-3.30;99.90;;;;;;4975081;28;20660;-75
2022/03/10 06:31:47;;;;;;;0.70;0.70;;;-2.90;1.00;;;;;;4976237;28;20174;-75
2022/03/10 06:34:13;;;;;;;0.90;0.90;;;-2.80;99.90;;;;;;4976946;28;20228;-75
2022/03/10 06:36:38;;;;;;;0.80;0.80;;;-2.60;99.90;;;;;;4976466;28;20209;-75
2022/03/10 06:39:06;;;;;;;0.80;0.80;;;-2.70;1.00;;;;;;4976228;28;20177;-75
2022/03/10 06:41:31;;;;;;;0.90;0.90;;;-2.60;1.00;;;;;;4975080;28;20647;-76
2022/03/10 06:43:57;;;;;;;0.90;0.90;;;-2.30;99.90;;;;;;4983415;28;20300;-78
2022/03/10 06:46:23;;;;;;;0.80;0.80;;;-2.00;1.00;;;;;;4993600;28;20243;-76
2022/03/10 06:48:49;;;;;;;0.90;0.90;;;-1.50;1.00;;;;;;4993689;28;20245;-75
2022/03/10 06:51:14;;;;;;;0.80;0.80;;;-1.30;1.00;;;;;;4992806;28;20219;-75
2022/03/10 06:53:41;;;;;;;0.80;0.80;;;-0.40;1.00;;;;;;4993466;28;20656;-74
2022/03/10 06:56:06;;;;;;;0.80;0.80;;;0.30;1.00;;;;;;4998507;28;20252;-74
2022/03/10 06:58:32;;;;;;;0.80;0.80;;;0.70;99.90;;;;;;4993477;28;20694;-75
2022/03/10 07:00:58;;;;;;;0.80;0.80;;;1.00;99.90;;;;;;4994901;28;20745;-75
2022/03/10 07:03:23;;;;;;;0.80;0.80;;;1.30;99.90;;;;;;4997415;28;20232;-75
2022/03/10 07:05:49;;;;;;;0.80;0.80;;;2.10;1.00;;;;;;4995173;28;20243;-75
2022/03/10 07:08:15;;;;;;;0.80;0.80;;;4.30;1.00;;;;;;5004245;28;20181;-74
2022/03/10 07:10:40;;;;;;;0.73;0.73;;;5.20;1.00;;;;;;5006421;28;20220;-76
2022/03/10 07:13:08;;;;;;;0.60;0.60;;;5.80;1.00;;;;;;4998114;28;20670;-76
2022/03/10 07:15:34;;;;;;;0.57;0.57;;;6.00;1.00;;;;;;4994836;28;20652;-76
2022/03/10 07:17:59;;;;;;;0.60;0.60;;;6.50;1.00;;;;;;4995446;28;20173;-77
2022/03/10 07:20:25;;;;;;;0.60;0.60;;;6.60;1.00;;;;;;4998514;28;20216;-75
2022/03/10 07:22:50;;;;;;;0.60;0.60;;;6.90;1.00;;;;;;4995543;28;20177;-75
2022/03/10 07:25:16;;;;;;;0.60;0.60;;;7.30;1.00;;;;;;4995794;28;20209;-74
2022/03/10 07:27:42;;;;;;;0.50;0.50;;;7.90;1.00;;;;;;4994279;28;20169;-76
2022/03/10 07:30:09;;;;;;;0.50;0.50;;;8.00;1.00;;;;;;4993716;28;20614;-74
2022/03/10 07:32:34;;;;;;;0.50;0.50;;;8.20;1.00;;;;;;4994769;28;20228;-76
2022/03/10 07:35:01;;;;;;;0.30;0.30;;;8.10;1.00;;;;;;4993918;28;20216;-77
2022/03/10 07:37:27;;;;;;;0.40;0.40;;;8.10;1.00;;;;;;4994345;28;20235;-75
2022/03/10 07:39:52;;;;;;;0.20;0.20;;;8.30;1.00;;;;;;4993066;28;20421;-74
2022/03/10 07:42:18;;;;;;;0.30;0.30;;;9.10;1.00;;;;;;4993379;28;20177;-73
2022/03/10 07:44:43;;;;;;;0.40;0.40;;;8.70;1.00;;;;;;4993144;28;20216;-74
2022/03/10 07:47:09;;;;;;;0.33;0.33;;;9.10;1.00;;;;;;4993180;28;20192;-74
2022/03/10 07:49:35;;;;;;;0.33;0.33;;;9.00;1.00;;;;;;4992460;28;20319;-74
2022/03/10 07:52:01;;;;;;;0.30;0.30;;;9.40;1.00;;;;;;4994100;28;20759;-72
2022/03/10 07:54:27;;;;;;;0.30;0.30;;;9.50;1.00;;;;;;4993619;28;20207;-73
2022/03/10 07:56:53;;;;;;;0.30;0.30;;;9.30;1.00;;;;;;4993078;28;20189;-74
2022/03/10 07:59:19;;;;;;;0.30;0.30;;;9.70;1.00;;;;;;4992411;28;20174;-73
2022/03/10 08:01:44;;;;;;;0.30;0.30;;;10.10;1.00;;;;;;4993016;28;20205;-74
2022/03/10 08:04:10;;;;;;;0.30;0.30;;;10.50;1.00;;;;;;4992240;28;20209;-74
2022/03/10 08:06:36;;;;;;;0.30;0.30;;;10.40;1.00;;;;;;4992894;28;20173;-79
2022/03/10 08:09:02;;;;;;;0.30;0.30;;;10.30;1.00;;;;;;4994240;28;20267;-78
2022/03/10 08:11:28;;;;;;;0.30;0.30;;;10.40;1.00;;;;;;4999201;28;20575;-77
2022/03/10 08:13:54;;;;;;;0.27;0.27;;;10.30;1.00;;;;;;4994355;28;20185;-78
2022/03/10 08:16:20;;;;;;;0.30;0.30;;;10.50;1.00;;;;;;4993277;28;20255;-77
2022/03/10 08:18:47;;;;;;;0.30;0.30;;;10.30;1.00;;;;;;4993175;28;20181;-80
2022/03/10 08:21:13;;;;;;;0.30;0.30;;;10.60;1.00;;;;;;4993353;28;20282;-78
2022/03/10 08:23:38;;;;;;;0.40;0.40;;;11.60;1.00;;;;;;4993641;28;20263;-77
2022/03/10 08:26:04;;;;;;;0.37;0.37;;;11.60;1.00;;;;;;4993944;28;20265;-78
2022/03/10 08:28:29;;;;;;;0.30;0.30;;;12.00;1.00;;;;;;4992875;28;20737;-74
2022/03/10 08:30:56;;;;;;;0.40;0.40;;;11.90;1.00;;;;;;4991230;28;20746;-77
2022/03/10 08:33:21;;;;;;;0.30;0.30;;;11.60;1.00;;;;;;4991356;28;20200;-77
2022/03/10 08:35:47;;;;;;;0.30;0.30;;;12.10;1.00;;;;;;4993152;28;20262;-77
2022/03/10 08:38:13;;;;;;;0.20;0.20;;;12.10;1.00;;;;;;4993160;28;20256;-75
2022/03/10 08:40:39;;;;;;;0.30;0.30;;;12.40;1.00;;;;;;4992530;28;20220;-76
2022/03/10 08:43:05;;;;;;;0.20;0.20;;;12.60;1.00;;;;;;4992596;28;20173;-78
2022/03/10 08:45:32;;;;;;;0.40;0.40;;;12.80;1.00;;;;;;4996565;28;20264;-76
2022/03/10 08:47:57;;;;;;;0.20;0.20;;;12.70;1.00;;;;;;4993514;28;20704;-76
2022/03/10 08:50:23;;;;;;;0.27;0.27;;;12.90;1.00;;;;;;4992375;28;20193;-78
2022/03/10 08:52:49;;;;;;;0.30;0.30;;;13.00;1.00;;;;;;4992991;28;20554;-76
2022/03/10 08:55:15;;;;;;;0.30;0.30;;;12.30;1.00;;;;;;4992574;28;20283;-79
2022/03/10 08:57:40;;;;;;;0.20;0.20;;;11.80;1.00;;;;;;4992341;28;20183;-76
2022/03/10 09:00:08;;;;;;;0.30;0.30;;;12.00;1.00;;;;;;4992217;28;20675;-77
2022/03/10 09:02:34;;;;;;;0.30;0.30;;;12.20;1.00;;;;;;4991842;28;20188;-77
2022/03/10 09:04:59;;;;;;;0.37;0.37;;;13.10;1.00;;;;;;4992356;28;20241;-76
2022/03/10 09:07:25;;;;;;;0.30;0.30;;;13.60;1.00;;;;;;4992620;28;20173;-75
2022/03/10 09:09:51;;;;;;;0.27;0.27;;;13.90;1.00;;;;;;4992543;28;20197;-75
2022/03/10 09:12:16;;;;;;;0.40;0.40;;;13.20;1.00;;;;;;4992508;28;20188;-77
2022/03/10 09:14:42;;;;;;;0.30;0.30;;;12.90;1.00;;;;;;4991419;28;20216;-75
2022/03/10 09:17:07;;;;;;;0.40;0.40;;;13.40;1.00;;;;;;4995235;28;20177;-77
2022/03/10 09:19:33;;;;;;;0.20;0.20;;;14.20;1.00;;;;;;4994742;28;20197;-79
2022/03/10 09:21:59;;;;;;;0.20;0.20;;;14.10;1.00;;;;;;4996412;28;20177;-77
2022/03/10 09:24:25;;;;;;;0.37;0.37;;;13.60;1.00;;;;;;4993434;28;20177;-81
2022/03/10 09:26:51;;;;;;;0.30;0.30;;;14.20;1.00;;;;;;4991634;28;20209;-76
2022/03/10 09:29:16;;;;;;;0.30;0.30;;;14.50;1.00;;;;;;4991645;28;20206;-75
2022/03/10 09:31:43;;;;;;;0.30;0.30;;;13.40;1.00;;;;;;4992317;28;20629;-74
2022/03/10 09:34:08;;;;;;;0.40;0.40;;;14.70;1.00;;;;;;4991360;28;20205;-74
2022/03/10 09:36:34;;;;;;;0.20;0.20;;;15.10;1.00;;;;;;4991407;28;20528;-75
2022/03/10 09:38:59;;;;;;;0.33;0.33;;;15.30;1.00;;;;;;4990828;28;20212;-78
2022/03/10 09:41:25;;;;;;;0.30;0.30;;;15.30;1.00;;;;;;4993963;28;20188;-76
2022/03/10 09:43:51;;;;;;;0.30;0.30;;;15.70;1.00;;;;;;4995326;28;20184;-79
2022/03/10 09:46:17;;;;;;;0.30;0.30;;;15.90;1.00;;;;;;4996803;28;20197;-77
2022/03/10 09:48:43;;;;;;;0.40;0.40;;;15.50;1.00;;;;;;4999666;28;20177;-76
2022/03/10 09:51:09;;;;;;;0.30;0.30;;;15.10;1.00;;;;;;4995374;28;20201;-75
2022/03/10 09:53:35;;;;;;;0.30;0.30;;;15.40;1.00;;;;;;4995568;28;20292;-74
2022/03/10 09:56:04;;;;;;;0.30;0.30;;;15.40;1.00;;;;;;4995467;28;20771;-76
2022/03/10 09:58:31;;;;;;;0.30;0.30;;;16.60;1.00;;;;;;4999705;28;20189;-79
2022/03/10 10:01:07;;;;;;;0.30;0.30;;;17.40;1.00;;;;;;4996055;28;20582;-79
2022/03/10 10:03:33;;;;;;;0.30;0.30;;;17.60;1.00;;;;;;4996385;28;20169;-78
2022/03/10 10:06:00;;;;;;;0.30;0.30;;;16.80;1.00;;;;;;4996269;28;20522;-77
2022/03/10 10:08:26;;;;;;;0.20;0.20;;;17.20;1.00;;;;;;4996516;28;20272;-76
2022/03/10 10:10:54;;;;;;;0.30;0.30;;;17.30;1.00;;;;;;4994682;28;20746;-81
2022/03/10 10:13:26;;;;;;;0.40;0.40;;;15.70;1.00;;;;;;4995675;28;20236;-76
2022/03/10 10:15:55;;;;;;;0.30;0.30;;;15.80;1.00;;;;;;4995391;28;20222;-76
2022/03/10 10:18:21;;;;;;;0.30;0.30;;;16.40;1.00;;;;;;4995139;28;20205;-74
2022/03/10 10:20:49;;;;;;;0.23;0.23;;;17.90;1.00;;;;;;4996139;28;20201;-77
2022/03/10 10:23:29;;;;;;;0.30;0.30;;;18.00;1.00;;;;;;4996537;28;20200;-78
2022/03/10 10:26:01;;;;;;;0.30;0.30;;;18.20;1.00;;;;;;4997283;28;20280;-79
2022/03/10 10:28:31;;;;;;;0.20;0.20;;;17.30;1.00;;;;;;4996095;28;20196;-74
2022/03/10 10:31:12;;;;;;;0.20;0.20;;;17.00;1.00;;;;;;4994237;28;20251;-75
2022/03/10 10:33:40;;;;;;;0.30;0.30;;;17.60;1.00;;;;;;4994506;28;20205;-77
2022/03/10 10:36:24;;;;;;;0.40;0.40;;;17.60;1.00;;;;;;4994209;28;20264;-74
2022/03/10 10:38:55;;;;;;;0.30;0.30;;;16.50;1.00;;;;;;4991742;28;20184;-76
2022/03/10 10:41:28;;;;;;;0.30;0.30;;;16.40;1.00;;;;;;4994646;28;20189;-74
2022/03/10 10:43:53;;;;;;;0.30;0.30;;;16.90;1.00;;;;;;4994605;28;20173;-75
2022/03/10 10:46:29;;;;;;;0.30;0.30;;;16.30;1.00;;;;;;4994116;28;20683;-75
2022/03/10 10:48:56;;;;;;;0.40;0.40;;;16.50;1.00;;;;;;4993619;28;20177;-75
2022/03/10 10:51:46;;;;;;;0.30;0.30;;;16.80;1.00;;;;;;4994446;28;20219;-76
2022/03/10 10:54:21;;;;;;;0.30;0.30;;;16.60;1.00;;;;;;4988176;28;20228;-78
2022/03/10 10:56:52;;;;;;;0.30;0.30;;;17.80;1.00;;;;;;4994435;28;20227;-74
2022/03/10 10:59:30;;;;;;;0.40;0.40;;;18.00;1.00;;;;;;4993435;28;20173;-75
2022/03/10 11:02:10;;;;;;;0.30;0.30;;;16.60;1.00;;;;;;4994072;28;20193;-74
2022/03/10 11:04:37;;;;;;;0.33;0.33;;;16.70;1.00;;;;;;4994204;28;20173;-74
2022/03/10 11:07:04;;;;;;;0.40;0.40;;;17.40;1.00;;;;;;4993964;28;20626;-74
2022/03/10 11:09:33;;;;;;;0.30;0.30;;;17.20;1.00;;;;;;4993301;28;20193;-74
2022/03/10 11:11:59;;;;;;;0.30;0.30;;;17.40;1.00;;;;;;4995183;28;20181;-74
2022/03/10 11:14:25;;;;;;;0.40;0.40;;;17.10;1.00;;;;;;4993128;28;20296;-76
2022/03/10 11:16:52;;;;;;;0.30;0.30;;;17.50;1.00;;;;;;4993775;28;20184;-75
2022/03/10 11:19:25;;;;;;;0.30;0.30;;;17.50;1.00;;;;;;4993496;28;20186;-75
2022/03/10 11:22:19;;;;;;;0.30;0.30;;;18.20;1.00;;;;;;4994671;28;20185;-77
2022/03/10 11:24:51;;;;;;;0.30;0.30;;;18.40;1.00;;;;;;4994333;28;20173;-76
2022/03/10 11:27:29;;;;;;;0.30;0.30;;;18.20;1.00;;;;;;4994423;28;20630;-75
2022/03/10 11:29:57;;;;;;;0.30;0.30;;;18.50;1.00;;;;;;4993503;28;20200;-75
2022/03/10 11:32:29;;;;;;;0.30;0.30;;;18.00;1.00;;;;;;4993740;28;20196;-74
2022/03/10 11:34:58;;;;;;;0.30;0.30;;;18.80;1.00;;;;;;4993504;28;20232;-74
2022/03/10 11:37:49;;;;;;;0.30;0.30;;;19.10;1.00;;;;;;4993764;28;20261;-75
2022/03/10 11:40:18;;;;;;;0.40;0.40;;;17.80;1.00;;;;;;4992706;28;20703;-74
2022/03/10 11:42:43;;;;;;;0.30;0.30;;;18.60;1.00;;;;;;4993681;28;20174;-76
2022/03/10 11:45:09;;;;;;;0.30;0.30;;;17.80;1.00;;;;;;4995282;28;20263;-76
2022/03/10 11:47:36;;;;;;;0.30;0.30;;;18.70;1.00;;;;;;4994243;28;20551;-76
2022/03/10 11:50:22;;;;;;;0.30;0.30;;;18.70;1.00;;;;;;4993417;28;20737;-76
2022/03/10 11:53:02;;;;;;;0.30;0.30;;;18.50;1.00;;;;;;4993130;28;20173;-76
2022/03/10 11:55:51;;;;;;;0.40;0.40;;;19.30;1.00;;;;;;4993383;28;20213;-76
2022/03/10 11:58:18;;;;;;;0.30;0.30;;;18.60;1.00;;;;;;4993147;28;20181;-76
2022/03/10 12:00:51;;;;;;;0.40;0.40;;;19.00;1.00;;;;;;4992644;28;20208;-77
2022/03/10 12:03:30;;;;;;;0.30;0.30;;;17.60;1.00;;;;;;4994315;28;20239;-76
2022/03/10 12:06:07;;;;;;;0.33;0.33;;;18.90;1.00;;;;;;4995040;28;20184;-80
2022/03/10 12:08:38;;;;;;;0.30;0.30;;;19.50;1.00;;;;;;4995098;28;20177;-77
2022/03/10 12:11:06;;;;;;;0.30;0.30;;;18.30;1.00;;;;;;4994001;28;20205;-78
2022/03/10 12:13:36;;;;;;;0.30;0.30;;;18.40;1.00;;;;;;4994421;28;20192;-76
2022/03/10 12:16:26;;;;;;;0.30;0.30;;;17.70;1.00;;;;;;4994193;28;20189;-77
2022/03/10 12:18:52;;;;;;;0.40;0.40;;;18.60;1.00;;;;;;4994021;28;20185;-76
2022/03/10 12:21:22;;;;;;;0.40;0.40;;;18.70;1.00;;;;;;4995313;28;20211;-75
2022/03/10 12:24:05;;;;;;;0.40;0.40;;;19.50;1.00;;;;;;4996413;28;20559;-76
2022/03/10 12:26:39;;;;;;;0.40;0.40;;;20.00;1.00;;;;;;4993803;28;20230;-74
2022/03/10 12:29:07;;;;;;;0.40;0.40;;;19.30;1.00;;;;;;4995889;28;20259;-75
2022/03/10 12:31:35;;;;;;;0.37;0.37;;;19.30;1.00;;;;;;4993566;28;20240;-76
2022/03/10 12:34:06;;;;;;;0.30;0.30;;;19.00;1.00;;;;;;4994830;28;20277;-78
2022/03/10 12:36:41;;;;;;;0.30;0.30;;;19.30;1.00;;;;;;4993002;28;20183;-79
2022/03/10 12:39:09;;;;;;;0.40;0.40;;;19.50;1.00;;;;;;4992076;28;20702;-77
2022/03/10 12:41:43;;;;;;;0.30;0.30;;;19.20;1.00;;;;;;4992738;28;20256;-78
2022/03/10 12:44:11;;;;;;;0.40;0.40;;;18.00;1.00;;;;;;4992813;28;20309;-78
2022/03/10 12:46:39;;;;;;;0.30;0.30;;;18.20;1.00;;;;;;4993298;28;20191;-77
2022/03/10 12:49:26;;;;;;;0.30;0.30;;;18.30;1.00;;;;;;4993358;28;20181;-75
2022/03/10 12:51:53;;;;;;;0.40;0.40;;;18.90;1.00;;;;;;4992578;28;20181;-74
2022/03/10 12:54:19;;;;;;;0.30;0.30;;;20.20;1.00;;;;;;4992521;28;20220;-76
2022/03/10 12:56:50;;;;;;;0.30;0.30;;;21.00;1.00;;;;;;4992846;28;20184;-76
2022/03/10 12:59:30;;;;;;;0.30;0.30;;;20.40;1.00;;;;;;4992737;28;20584;-74
2022/03/10 13:02:16;;;;;;;0.40;0.40;;;19.10;1.00;;;;;;4993147;28;20189;-77
2022/03/10 13:05:01;;;;;;;0.20;0.20;;;20.60;1.00;;;;;;4996594;28;20180;-76